Crane Gaia — 3FXX2 — position and weather

sailwx.info

Track history (hours):
 
Tides and Currents Weather Stations Pressure Air Temp Water Temp Dewpoint Dewpoint Depression Visibility Wind Speed Wind Dir Waves Ship Positions

Crane Gaia

Last reported at 2015-May-02 02:30 UTC. Time now 2015-May-05 15:17 UTC.
Position N 30°12' E 121°48'.

Length 115 m; draft 5.2 m.

Type: Tanker. MMSI: 352461000.

Date/timePositionNaut miles runAvg speedWind from/ knotsBaromVisibWave heightAir tempDewpointWater temp
2015-May-02 02:30N 30°12' E 121°48'1212.4
2015-May-02 01:32N 30°01' E 121°49'4 1.3
2015-May-01 22:33N 29°59' E 121°45'0 0.0
2015-May-01 21:09N 29°59' E 121°45'0 0.0
2015-May-01 20:33N 29°59' E 121°45'0 0.0
2015-May-01 01:33N 29°59' E 121°45'0 0.1
2015-Apr-30 22:07N 29°59' E 121°45'0 0.0
2015-Apr-30 02:33N 29°59' E 121°45'4 4.1
2015-Apr-30 01:33N 30°02' E 121°48'8 7.1
2015-Apr-30 00:28N 30°09' E 121°48'10 8.0
2015-Apr-29 23:15N 30°19' E 121°44'0 0.0
2015-Apr-29 22:33N 30°19' E 121°44'0 0.0
2015-Apr-29 21:33N 30°19' E 121°44'0 0.1
2015-Apr-29 20:33N 30°19' E 121°44'0 0.0
2015-Apr-29 18:33N 30°19' E 121°44'0 0.0
2015-Apr-29 16:30N 30°19' E 121°44'0 0.0
2015-Apr-29 15:06N 30°19' E 121°44'0 0.0
2015-Apr-29 09:21N 30°19' E 121°44'910.7
2015-Apr-29 08:31N 30°26' E 121°51'1212.6
2015-Apr-29 07:31N 30°32' E 122°03'9 9.6
2015-Apr-29 06:33N 30°37' E 122°13'  
Track history (hours):
 
Tides and Currents Weather Stations Pressure Air Temp Water Temp Dewpoint Dewpoint Depression Visibility Wind Speed Wind Dir Waves Ship Positions

Crane Gaia

Last reported at 2015-May-02 02:30 UTC. Time now 2015-May-05 15:17 UTC.
Position N 30°12' E 121°48'.

Length 115 m; draft 5.2 m.

Type: Tanker. MMSI: 352461000.

Date/timePositionNaut miles runAvg speedWind from/ knotsBaromVisibWave heightAir tempDewpointWater temp
2015-May-02 02:30N 30°12' E 121°48'1212.4
2015-May-02 01:32N 30°01' E 121°49'4 1.3
2015-May-01 22:33N 29°59' E 121°45'0 0.0
2015-May-01 21:09N 29°59' E 121°45'0 0.0
2015-May-01 20:33N 29°59' E 121°45'0 0.0
2015-May-01 01:33N 29°59' E 121°45'0 0.1
2015-Apr-30 22:07N 29°59' E 121°45'0 0.0
2015-Apr-30 02:33N 29°59' E 121°45'4 4.1
2015-Apr-30 01:33N 30°02' E 121°48'8 7.1
2015-Apr-30 00:28N 30°09' E 121°48'10 8.0
2015-Apr-29 23:15N 30°19' E 121°44'0 0.0
2015-Apr-29 22:33N 30°19' E 121°44'0 0.0
2015-Apr-29 21:33N 30°19' E 121°44'0 0.1
2015-Apr-29 20:33N 30°19' E 121°44'0 0.0
2015-Apr-29 18:33N 30°19' E 121°44'0 0.0
2015-Apr-29 16:30N 30°19' E 121°44'0 0.0
2015-Apr-29 15:06N 30°19' E 121°44'0 0.0
2015-Apr-29 09:21N 30°19' E 121°44'910.7
2015-Apr-29 08:31N 30°26' E 121°51'1212.6
2015-Apr-29 07:31N 30°32' E 122°03'9 9.6
2015-Apr-29 06:33N 30°37' E 122°13'  

Dump ship's entire track history